Sand Point, AK

10:53 PM AKDT on April 20, 2015 (GMT -0800)
False Pass | | Change Station
CLOSE
Current Station
Airport
Location: False Pass,
Elevation: 20 ft
Nearby Weather Stations

Elev 20 ft 54.85 °N, 163.41 °W | Updated 52 minutes ago

Mostly Cloudy
Mostly Cloudy
35 °F
Feels Like 29 °F
N
7
Wind Variable Wind from SE

Today
High -- | Low -- °F
--% Chance of Precip.
Yesterday
High -- | Low -- °F
Precip. -- in
7:26 AM 9:57 PM
Waxing Crescent, 8% visible
Pressure 29.96 in
Visibility 10.0 miles
Clouds Few 2400 ft
Mostly Cloudy 3100 ft
Windchill 29 °F
Dew Point 27 °F
Humidity 72%
Rainfall 0.07 in
Snow Depth Not available.
UV 0 out of 12
Pollen Not available.
Air Quality Not available.
Flu Activity Sporadic
METAR PAKF 210601Z AUTO 14006KT 10SM FEW024 BKN031 02/M03 A2968 RMK AO2 RAE0518 SLP146 P0000 60001 T00171028 10044 20017 53001 FZRANO $

More Conditions Fewer Conditions

Pressure 29.96 in
Visibility 10.0 miles
Clouds Few 2400 ft
Mostly Cloudy 3100 ft
Windchill 29 °F
Dew Point 27 °F
Humidity 72%
Rainfall 0.07 in
Snow Depth Not available.
UV 0 out of 12
Pollen Not available.
Air Quality Not available.
Flu Activity Sporadic
METAR PAKF 210601Z AUTO 14006KT 10SM FEW024 BKN031 02/M03 A2968 RMK AO2 RAE0518 SLP146 P0000 60001 T00171028 10044 20017 53001 FZRANO $

More Conditions Fewer Conditions

10-Day Weather Forecast

Almanac

Astronomy

Apr. 20, 2015 Rise Set
Actual Time
Civil Twilight
Nautical Twilight
Astronomical Twilight
Moon
Length of Visible Light
Length of Day
Tomorrow will be .
, % of the Moon is Illuminated

Today's Extremes

State Highs State Lows

Community

WunderPhotos

Upload Photos

1,815,321 photos uploaded!

WunderBlogs® & News

Nearby

Air Quality

  Air Quality AQ Index Pollutant
Not available.

Snow Depth

Station Depth Elevation

Earthquake Activity

City Distance Mag. Time & Date
Minimum magnitude displayed is 2.5.

Coastal Water Temperatures

Place Temperature

Stations

Nearby Weather Stations

Station Location Temp. Windchill Dew Point Humidity Wind Precip. Elev Updated Type